Tiempo atmosférico en la estación meteorológica de Asturias Aeropuerto, Asturias (127 m.)



Fecha
DESCASC
Temp. máxima en grados centígrados (hora)
DESCASC
Temp. mínima en grados centígrados (hora)
DESCASC
Temp. media en grados centígrados
DESCASC
Racha de viento máxima en m/sg (hora)
DESCASC
Velocidad máxima media en intervalos de 10 minutos(hora)
DESCASC
Precipitaciones diarias en mm
DESCASC
Precipitaciones de 00:00 a 06:00 en mm
DESCASC
Precipitaciones de 06:00 a 12:00 en mm
DESCASC
Precipitaciones de 12:00 a 18:00 en mm
DESCASC
Precipitaciones de 18:00 a 24:00 en mm
DESCASC
31-03-2020 -- (--) -- (--) -- -- (--) -- (--) -- -- -- 0 0
30-03-2020 -- (--) -- (--) -- -- (--) -- (--) -- -- -- 1.7 --
29-03-2020 -- (--) -- (--) -- -- (--) -- (--) 0.4 0 0 0 0.4
28-03-2020 14.8 (13:30) 4.3 (00:00) 9.6 9.17 (17:30) 5.83 (17:30) 0 0 0 0 0
27-03-2020 13.3 (14:00) 2.6 (00:00) 8 -- (--) -- (--) -- 0 -- -- 0
26-03-2020 13 (14:30) 4.7 (00:00) 8.8 -- (--) -- (--) 0 0 0 0 0
25-03-2020 14.7 (14:20) 7.4 (00:00) 11 7.22 (14:30) 4.72 (14:40) 0 0 0 0 0
24-03-2020 16.8 (16:20) 8.6 (00:00) 12.7 11.67 (17:30) 7.5 (17:10) 0 0 0 0 0
23-03-2020 12.9 (15:50) 10.6 (00:00) 11.8 9.17 (20:50) 6.11 (15:00) 0 0 0 0 0
22-03-2020 14.4 (14:30) 10.8 (00:50) 12.6 6.67 (21:30) 4.17 (19:40) 0 0 0 0 0
21-03-2020 12 (17:10) 9.9 (00:00) 10.9 5.83 (08:30) 3.61 (09:30) 0 0 0 0 0
20-03-2020 13.1 (16:50) 9.9 (00:00) 11.5 5 (18:40) 3.89 (18:40) 0 0 0 0 0
19-03-2020 12.3 (18:00) 9.5 (00:00) 10.9 5.83 (17:20) 3.61 (17:10) 0.2 0 0 0.2 0
18-03-2020 14.4 (14:00) 9.1 (00:00) 11.8 5 (14:10) 3.33 (14:20) 0 0 0 0 0
17-03-2020 13.2 (13:50) 4.4 (00:00) 8.8 9.17 (17:00) 5.83 (17:00) 0 0 0 0 0
16-03-2020 12.2 (16:30) 4.8 (00:00) 8.5 11.39 (10:10) 6.11 (10:10) 2.8 0.8 1.9 0.1 0
15-03-2020 17.4 (13:10) 4.7 (00:00) 11 13.89 (14:00) 9.17 (17:30) 7.1 0 0 2.8 4.3
14-03-2020 14.6 (12:00) 6.9 (00:00) 10.8 7.78 (09:30) 5 (09:20) 0 0 0 0 0
13-03-2020 12.1 (17:50) 8.3 (04:50) 10.2 9.17 (12:30) 5.28 (13:10) 0.1 0.1 0 0 0
12-03-2020 13.4 (13:30) 8.7 (00:00) 11 6.67 (19:40) 3.89 (19:00) 3.1 0 1.9 0.8 0.4
11-03-2020 16.4 (14:40) 8.1 (00:00) 12.3 6.11 (07:50) 4.44 (08:20) 0 0 0 0 0
10-03-2020 16.6 (15:50) 6.2 (00:00) 11.4 5.83 (06:00) 3.89 (06:10) 0 0 0 0 0
09-03-2020 14.7 (13:10) 8.4 (00:00) 11.5 12.5 (00:50) 8.33 (00:40) 0 0 0 0 0
08-03-2020 18.1 (13:10) 6.1 (00:00) 12.1 16.39 (22:20) 11.94 (22:20) 0.3 0 0 0 0.3
07-03-2020 14.3 (16:20) 7 (00:00) 10.7 10.28 (00:10) 6.11 (00:10) 0.1 0.1 0 0 0
06-03-2020 11.9 (16:10) 6.1 (00:00) 9 27.22 (05:50) 16.67 (04:50) 15.8 10 3.8 1.6 0.4
05-03-2020 19.1 (02:30) 8.5 (00:00) 13.8 20.56 (10:20) 15 (11:20) 17.2 7.8 6.1 3 0.3
04-03-2020 21.6 (15:20) 11 (00:00) 16.3 16.39 (16:40) 10 (17:30) 0 0 0 0 0
03-03-2020 18.3 (10:40) 8.6 (00:00) 13.4 25.28 (09:40) 17.5 (11:10) 4.2 3 0.3 0 0.9
02-03-2020 10.5 (14:20) 4.9 (00:00) 7.7 26.67 (03:20) 20 (03:30) 44.4 26.8 14.8 2 0.8

Gráficas

Temp. máximas Temp. mínimas Temp. medias Precipitaciones Rachas de viento máximas Velocidades máximas media en intervalos de 10 minutos

Datos horarios

Fecha y hora oficial Temperatura (ºC) Velocidad del viento (km/h) Dirección del viento Racha (km/h) Dirección de racha Precipitación (mm) Presión (hPa) Tendencia (hPa) Humedad (%)
2020-03-31 23:00:00 8.9 23 Este 35 Este 0 995.7 0.8 89
2020-03-31 22:00:00 8.7 21 Este 39 Este 0 995.7 0.8 91
2020-03-31 21:00:00 8.6 22 Este 48 Este 0 995.1 0.2 88
2020-03-31 20:00:00 8.3 28 Este 52 Este 0 994.9 -0.1 86
2020-03-31 19:00:00 8.2 28 Este 48 Este 0 994.9 -0.4 85
2020-03-31 18:00:00 8.3 32 Este 52 Este 0 994.9 -0.8 82
2020-03-31 17:00:00 8.3 27 Este 52 Este 0 995 -1.3 74
2020-03-31 16:00:00 8.2 30 Este 52 Este 0 995.3 -1.4 71
2020-03-31 15:00:00 7.7 33 Este 52 Este 0 995.7 -1.3 75
2020-03-31 14:00:00 7.2 25 Este 58 Sudeste 0 996.3 -1.2 79
2020-03-31 13:00:00 7.2 29 Este 55 Este 0 996.7 -0.8 70
2020-03-31 12:00:00 7 30 Este 50 Este 0 997 -- 70
2020-03-31 11:00:00 6.5 27 Sudeste 42 Sudeste 0 997.5 -- 81
2020-03-31 10:00:00 4.1 13 Sudeste -- -- -- 997.5 -- 91
2020-03-31 09:00:00 -- -- -- -- -- -- -- -- --
2020-03-31 08:00:00 -- -- -- -- -- -- -- -- --
2020-03-31 07:00:00 -- -- -- -- -- -- -- -- --
2020-03-31 06:00:00 -- -- -- -- -- -- -- -- --
2020-03-31 05:00:00 -- -- -- -- -- -- -- -- --
2020-03-31 04:00:00 -- -- -- -- -- -- -- -- --
2020-03-31 03:00:00 -- -- -- -- -- -- -- -- --
2020-03-31 02:00:00 -- -- -- -- -- -- -- -- --
2020-03-31 01:00:00 -- -- -- -- -- -- -- -- --
2020-03-31 00:00:00 -- -- -- -- -- -- -- -- --
2020-03-30 23:00:00 3.7 13 Sudeste 33 Sudeste 0.4 1003.8 -0.1 95
2020-03-30 22:00:00 4.2 21 Este 37 Sudeste 0.2 1004.3 0.2 91
2020-03-30 21:00:00 3.8 12 Este 45 Este 1.1 1004.1 -0.6 89
2020-03-30 20:00:00 5.8 21 Este 42 Este 0 1003.9 -1.9 78
2020-03-30 19:00:00 6.4 22 Este 50 Este 0.3 1004.1 -1.7 72
2020-03-30 18:00:00 5 14 Este 33 Este 0.6 1004.7 -1.7 84
2020-03-30 17:00:00 3.9 26 Este 55 Este 0.8 1005.8 -1.3 83
2020-03-30 16:00:00 7 32 Este 52 Este 0 1005.8 -1.7 68
2020-03-30 15:00:00 6.2 26 Este 50 Este 0 1006.4 -1.4 67
2020-03-30 14:00:00 5.5 32 Este 46 Este 0.2 1007.1 -1 75
2020-03-30 13:00:00 6.1 32 Este 50 Este 0.1 1007.5 -0.5 70
2020-03-30 12:00:00 7.6 28 Este 52 Este 0 1007.8 -- 55
2020-03-30 11:00:00 6.5 36 Este 58 Este 0.1 1008.1 -- 64
2020-03-30 10:00:00 5.2 24 Este -- -- -- 1008 -- 79
2020-03-30 09:00:00 -- -- -- -- -- -- -- -- --
2020-03-30 08:00:00 -- -- -- -- -- -- -- -- --
2020-03-30 07:00:00 -- -- -- -- -- -- -- -- --
2020-03-30 06:00:00 7 21 Este -- -- -- 1007.6 -- 70
2020-03-30 05:00:00 -- -- -- -- -- -- -- -- --
2020-03-30 04:00:00 -- -- -- -- -- -- -- -- --
2020-03-30 03:00:00 -- -- -- -- -- -- -- -- --
2020-03-30 02:00:00 -- -- -- -- -- -- -- -- --
2020-03-30 01:00:00 6.7 22 Este 39 Este 0 1009.6 0.2 92
2020-03-30 00:00:00 7.8 21 Este 41 Este 0 1009.6 0.7 76
2020-03-29 23:00:00 7.2 17 Este 37 Este 0 1009.6 1.3 95
2020-03-29 22:00:00 7.4 21 Este 50 Este 0 1009.4 1.7 95
2020-03-29 21:00:00 7.8 21 Este 46 Nordeste 0 1008.9 1.8 95
2020-03-29 20:00:00 8.8 28 Este 48 Este 0 1008.3 1.4 90
2020-03-29 19:00:00 9.5 28 Este 46 Este 0.4 1007.7 0.8 93
2020-03-29 18:00:00 11.1 29 Este 48 Este 0 1007.1 -0.1 83
2020-03-29 17:00:00 13.4 17 Nordeste 33 Este 0 1006.9 -0.6 58
2020-03-29 16:00:00 13.5 18 Este 28 Este 0 1006.9 -0.7 66
2020-03-29 15:00:00 13 15 Este 30 Este 0 1007.2 -0.2 68
2020-03-29 14:00:00 11.5 15 Este 26 Este 0 1007.5 0.3 75
2020-03-29 13:00:00 11.3 14 Este 32 Este 0 1007.6 0.7 76
2020-03-29 12:00:00 11.1 14 Este 26 Este 0 1007.4 0.7 81
2020-03-29 11:00:00 11.7 13 Este 21 Este 0 1007.2 0.9 81
2020-03-29 10:00:00 9.3 7 Sudeste 9 Sudeste 0 1006.9 1 95
2020-03-29 09:00:00 7.1 8 Sudeste -- -- 0 1006.7 0.9 98
2020-03-29 08:00:00 6.5 8 Sudeste -- -- 0 1006.3 0.3 99
2020-03-29 07:00:00 -- -- -- -- -- -- 1005.9 -0.4 --
2020-03-29 06:00:00 7.4 -- -- -- -- 0 1005.8 -0.8 98
2020-03-29 05:00:00 7.8 5 Sudeste -- -- 0 1006 -0.7 98
2020-03-29 03:00:00 8.8 5 Sudeste -- -- 0 1006.6 0 94
2020-03-29 01:00:00 9.1 2 Sudeste 8 Sudeste 0 1006.7 0.2 96
2020-03-29 00:00:00 8.6 5 Sudeste 9 Sudeste 0 1006.7 0.5 98
2020-03-28 23:00:00 8.2 0 Calma 9 Este 0 1006.6 1.2 94
2020-03-28 22:00:00 9.3 8 Sudeste 13 Este 0 1006.5 1.5 91
2020-03-28 21:00:00 10.1 7 Este 15 Este 0 1006.2 1.9 87
2020-03-28 20:00:00 10.6 10 Este 17 Este 0 1005.4 1.5 84
2020-03-28 19:00:00 11.6 13 Este 26 Este 0 1005 1.1 78
2020-03-28 18:00:00 12.6 17 Este 33 Este 0 1004.3 0.2 74
2020-03-28 17:00:00 13.5 15 Este 30 Nordeste 0 1003.9 -0.4 71
2020-03-28 16:00:00 13.9 15 Este 30 Este 0 1003.9 -0.5 71
2020-03-28 15:00:00 13.9 14 Nordeste 30 Nordeste 0 1004.1 -0.5 68
2020-03-28 14:00:00 14.3 18 Este 32 Este 0 1004.3 -0.2 66
2020-03-28 13:00:00 14.2 18 Este 28 Este 0 1004.4 0.1 62
2020-03-28 12:00:00 13.3 17 Este 28 Nordeste 0 1004.6 0.8 66
2020-03-28 11:00:00 12.5 13 Este 26 Este 0 1004.5 1.1 67
2020-03-28 10:00:00 11.3 13 Sudeste 18 Sudeste 0 1004.3 1.6 69
2020-03-28 09:00:00 6.7 13 Sur 24 Sudoeste 0 1003.8 1.4 81
2020-03-28 08:00:00 4.8 16 Sur 26 Sur 0 1003.4 1.4 89
2020-03-28 07:00:00 4.5 15 Sur 22 Sur 0 1002.7 0.8 92
2020-03-28 06:00:00 4.9 17 Sudoeste 24 Sudoeste 0 1002.4 0.5 90
2020-03-28 05:00:00 5.2 13 Sur 17 Sur 0 1002 0 90
2020-03-28 04:00:00 5.8 13 Sur 18 Sur 0 1001.9 0.2 87
2020-03-28 03:00:00 5.4 11 Sur 15 Sur 0 1001.9 0.3 89
2020-03-28 02:00:00 5.8 8 Sur 11 Sur 0 1002 0.4 88
2020-03-28 01:00:00 6.3 6 Sur 13 Sudeste 0 1001.7 0.6 84
2020-03-28 00:00:00 6.8 10 Sudeste 15 Sudeste 0 1001.6 1.1 82
2020-03-27 23:00:00 7.3 14 Sudeste 26 Este 0 1001.6 1.8 80
2020-03-27 22:00:00 8.3 18 Sudeste 30 Este 0 1001.1 1.9 76
2020-03-27 21:00:00 9.5 20 Este 33 Este 0 1000.5 1.7 71
2020-03-27 20:00:00 9.9 22 Este 37 Este 0 999.8 1.3 68
2020-03-27 19:00:00 10.8 27 Este 46 Este 0 999.2 0.6 63
2020-03-27 18:00:00 11.7 28 Este 48 Este 0 998.8 -0.1 60
2020-03-27 17:00:00 12 27 Este 45 Este 0 998.5 -0.5 55
2020-03-27 16:00:00 12.5 23 Este 45 Este 0 998.6 -0.7 51
2020-03-27 15:00:00 12.3 23 Este 45 Nordeste 0 998.9 -1 51
2020-03-27 14:00:00 13 25 Este 46 Este 0 999 -1.1 49
2020-03-27 13:00:00 12.3 24 Este 46 Este -- 999.3 -0.7 51
2020-03-27 12:00:00 12.3 25 Este 41 Este -- 999.9 -0.1 47
2020-03-27 11:00:00 11.5 25 Sudeste 37 Sudeste 0 1000.1 0.4 51
2020-03-27 10:00:00 10.3 15 Sudeste 28 Sudeste 0 1000 0.8 54
2020-03-27 09:00:00 7 8 Sur 15 Sur 0 1000 0.8 70
2020-03-27 08:00:00 3.5 9 Sur 11 Sur 0 999.7 0.6 83
2020-03-27 07:00:00 4 9 Sudeste -- -- 0 999.2 0.1 76
2020-03-27 06:00:00 3.7 9 Sudeste 11 Sudeste 0 999.2 -0.1 80
2020-03-27 05:00:00 4.5 6 Sur 9 Sudeste 0 999.1 -0.4 74
2020-03-27 04:00:00 -- -- -- -- -- 0 999.1 -0.6 --
2020-03-27 03:00:00 -- 8 Sudeste -- -- 0 999.3 -0.6 --
2020-03-27 02:00:00 6.1 8 Sudeste 13 Este 0 999.5 -0.5 68
2020-03-27 01:00:00 7.7 10 Este 18 Este 0 999.7 -0.4 60
2020-03-27 00:00:00 8.2 11 Este 28 Este 0 999.9 -0.1 62
2020-03-26 23:00:00 8.6 14 Este 24 Este 0 1000 0.2 61
2020-03-26 22:00:00 9.2 14 Este 26 Este 0 1000.1 0.3 64
2020-03-26 21:00:00 10 15 Este 26 Este 0 1000 0.5 63
2020-03-26 20:00:00 10 0 Calma 9 Oeste 0 999.8 0.1 68
2020-03-26 19:00:00 10.7 3 Sudeste 15 Norte 0 999.8 -0.1 63
2020-03-26 18:00:00 11.7 6 Nordeste 17 Nordeste 0 999.5 -0.6 58
2020-03-26 17:00:00 12 8 Nordeste 21 Nordeste 0 999.7 -0.9 56
2020-03-26 16:00:00 12.5 9 Norte 21 Nordeste 0 999.9 -1.1 55
2020-03-26 15:00:00 12.5 10 Nordeste 21 Nordeste 0 1000.1 -1.3 53
2020-03-26 14:00:00 12.3 9 Norte 22 Nordeste 0 1000.6 -0.8 54
2020-03-26 13:00:00 11.9 8 Norte 18 Norte 0 1001 -0.5 59
2020-03-26 12:00:00 11.1 8 Norte 17 Noroeste 0 1001.4 0.1 59
2020-03-26 11:00:00 10.4 5 Noroeste 11 Oeste 0 1001.4 0.3 60
2020-03-26 10:00:00 9.7 3 Sur 15 Sudoeste 0 1001.5 0.7 71
2020-03-26 09:00:00 7.8 9 Sudoeste 15 Sudoeste 0 1001.3 0.6 90
2020-03-26 08:00:00 6.4 10 Sudoeste 18 Sur 0 1001.1 0.5 98
2020-03-26 07:00:00 5.9 10 Sudoeste 15 Sudoeste 0 1000.8 0 100
2020-03-26 06:00:00 5.8 4 Sudoeste 8 Sudeste 0 1000.7 -0.6 99
2020-03-26 05:00:00 5 3 Sudeste -- -- 0 1000.6 -0.9 97
2020-03-26 04:00:00 6.2 -- -- -- -- 0 1000.8 -1.1 92
2020-03-26 03:00:00 6.7 8 Este 11 Este 0 1001.3 -0.7 94
2020-03-26 02:00:00 7.3 8 Este 11 Este 0 1001.5 -0.8 93
2020-03-26 01:00:00 8.1 0 Calma 8 Sudoeste 0 1001.9 -0.3 99
2020-03-26 00:00:00 7.9 4 Sudoeste 8 Sudoeste 0 1002 0.3 96
2020-03-25 23:00:00 8.6 7 Sudeste 11 Sudeste 0 1002.3 1 94
2020-03-25 22:00:00 9.2 0 Calma 11 Este 0 1002.2 1.1 95
2020-03-25 21:00:00 9.8 9 Este 17 Sudeste 0 1001.7 0.8 92
2020-03-25 20:00:00 10.5 9 Este 15 Este 0 1001.3 0.2 90
2020-03-25 19:00:00 12.3 5 Este 17 Este 0 1001.1 -0.3 83
2020-03-25 18:00:00 12.6 10 Nordeste 21 Este 0 1000.9 -0.7 84
2020-03-25 17:00:00 13.5 10 Norte 22 Este 0 1001.1 -0.3 82
2020-03-25 16:00:00 13.5 13 Nordeste 24 Este 0 1001.4 -0.1 83
2020-03-25 15:00:00 13.5 15 Este 26 Este 0 1001.6 -0.1 85
2020-03-25 14:00:00 14.2 11 Norte 18 Norte 0 1001.4 -0.2 82
2020-03-25 13:00:00 14.2 10 Norte 15 Nordeste 0 1001.5 -0.2 83
2020-03-25 12:00:00 13.9 9 Norte 15 Norte 0 1001.7 -0.1 82
2020-03-25 11:00:00 13 4 Nordeste 9 Nordeste 0 1001.6 0.3 87
2020-03-25 10:00:00 11.7 0 Calma 11 Nordeste 0 1001.7 1 94
2020-03-25 09:00:00 10.1 4 Sur 18 Sudoeste 0 1001.8 1.3 89
2020-03-25 08:00:00 8.5 13 Sudoeste 21 Sur 0 1001.3 0.8 94
2020-03-25 07:00:00 8.1 13 Sudoeste 18 Sudoeste 0 1000.7 0.1 97
2020-03-25 06:00:00 8.3 11 Sudoeste 18 Sudoeste 0 1000.5 -0.4 97
2020-03-25 05:00:00 8.6 11 Sur 17 Sur 0 1000.5 -0.5 97
2020-03-25 04:00:00 8.1 8 Sudoeste 11 Sur 0 1000.6 -0.6 100
2020-03-25 03:00:00 7.6 6 Sudoeste 9 Sudoeste 0 1000.9 -0.6 98
2020-03-25 02:00:00 8.6 5 Sur 8 Sur 0 1001 -0.7 100
2020-03-25 01:00:00 9.2 6 Sur 15 Sudeste 0 1001.2 -0.2 100
2020-03-25 00:00:00 8.8 11 Sudeste 13 Sudeste 0 1001.5 0.5 100
2020-03-24 23:00:00 8.8 10 Sudeste -- -- 0 1001.7 0.9 99
2020-03-24 22:00:00 -- 9 Sudeste 15 Sudeste 0 1001.4 0.6 --
2020-03-24 21:00:00 11 13 Sudeste 17 Este 0 1001 0.4 90
2020-03-24 20:00:00 12.8 13 Este 26 Este 0 1000.8 0.3 79
2020-03-24 19:00:00 14.7 18 Este 37 Este 0 1000.8 0.1 67
2020-03-24 18:00:00 16.1 26 Este 42 Este 0 1000.6 -0.6 61
2020-03-24 17:00:00 16.6 19 Este 39 Sudeste 0 1000.5 -1.2 59
2020-03-24 16:00:00 15.8 20 Este 32 Este 0 1000.7 -1.8 65
2020-03-24 15:00:00 15.6 17 Este 26 Este 0 1001.2 -1.4 77
2020-03-24 14:00:00 14.9 15 Este 30 Este 0 1001.7 -1.1 82
2020-03-24 13:00:00 14.6 15 Nordeste 24 Nordeste 0 1002.5 -0.8 77
2020-03-24 12:00:00 15 5 Norte 17 Norte 0 1002.6 -0.6 72
2020-03-24 11:00:00 14.3 7 Sudeste 22 Sudeste 0 1002.8 -0.4 73
2020-03-24 10:00:00 13.1 13 Sudeste 21 Sudeste 0 1003.3 0.6 81
2020-03-24 09:00:00 11.9 8 Sudeste 11 Sudeste 0 1003.2 0.7 93
2020-03-24 08:00:00 10.8 5 Sur 8 Sur 0 1003.2 0.8 98
2020-03-24 07:00:00 11.3 5 Sudeste 9 Sudeste 0 1002.7 0.2 100
2020-03-24 06:00:00 11.2 9 Este 13 Sudeste 0 1002.5 -0.3 100
2020-03-24 05:00:00 11.1 10 Sudeste 15 Sudeste 0 1002.4 -0.6 100
2020-03-24 04:00:00 11.2 10 Sudeste 15 Este 0 1002.5 -0.6 99
2020-03-24 03:00:00 11.3 12 Sudeste 22 Sudeste 0 1002.8 -0.4 99
2020-03-24 02:00:00 11.4 12 Este 28 Este 0 1003 -0.1 97
2020-03-24 01:00:00 11.4 14 Este 28 Sudeste 0 1003.1 -0.1 96
2020-03-24 00:00:00 11.2 21 Sudeste 30 Sudeste 0 1003.2 0.2 94
2020-03-23 23:00:00 11.4 17 Sudeste 30 Este 0 1003.1 0.3 91
2020-03-23 22:00:00 11.6 19 Este 30 Este 0 1003.2 0.6 90
2020-03-23 21:00:00 11.4 17 Este 33 Este 0 1003 0.7 88
2020-03-23 20:00:00 11.4 14 Este 28 Este 0 1002.8 0.4 86
2020-03-23 19:00:00 11.6 15 Este 28 Este 0 1002.6 0.3 85
2020-03-23 18:00:00 12 16 Este 30 Este 0 1002.3 -0.2 83
2020-03-23 17:00:00 12.4 19 Este 32 Este 0 1002.4 -0.6 83
2020-03-23 16:00:00 12.8 18 Este 32 Este 0 1002.3 -1 82
2020-03-23 15:00:00 12.6 22 Este 32 Este 0 1002.5 -1.1 89
2020-03-23 14:00:00 12.3 17 Este 28 Este 0 1003 -0.8 90
2020-03-23 13:00:00 11.8 12 Este 24 Este 0 1003.3 -0.6 94
2020-03-23 12:00:00 11.4 15 Este 22 Este 0 1003.6 0.1 100
2020-03-23 11:00:00 10.8 10 Este 15 Este 0 1003.8 0.8 100
2020-03-23 10:00:00 10.8 11 Este 18 Este 0 1003.9 1.4 100
2020-03-23 09:00:00 10.7 11 Este 22 Este 0 1003.5 1.3 100
2020-03-23 08:00:00 10.7 8 Este 18 Este 0 1003 1.2 100
2020-03-23 07:00:00 10.8 10 Este 21 Este 0 1002.5 0.7 99
2020-03-23 06:00:00 10.8 13 Este 21 Nordeste 0 1002.2 0.4 100
2020-03-23 05:00:00 10.9 7 Este 13 Sudeste 0 1001.8 -0.2 100
2020-03-23 04:00:00 10.9 6 Este 13 Este 0 1001.8 -0.6 99
2020-03-23 03:00:00 10.7 7 Este 18 Este 0 1001.8 -0.7 100
2020-03-23 02:00:00 10.9 11 Este 18 Nordeste 0 1002 -0.2 98
2020-03-23 01:00:00 11.1 12 Este 21 Este 0 1002.4 0.5 97
2020-03-23 00:00:00 11.2 7 Este 21 Este 0 1002.5 1.1 95
2020-03-22 23:00:00 11.3 13 Este 22 Este 0 1002.2 1.5 96
2020-03-22 22:00:00 11.5 10 Este 24 Este 0 1001.9 1.5 97
2020-03-22 21:00:00 11.6 11 Este 18 Este 0 1001.4 1.4 97
2020-03-22 20:00:00 11.7 13 Este 22 Este 0 1000.7 1 97
2020-03-22 19:00:00 12.1 12 Este 22 Este 0 1000.4 0.9 97
2020-03-22 18:00:00 12.6 10 Este 18 Nordeste 0 1000 0.5 95
2020-03-22 17:00:00 13 8 Nordeste 18 Norte 0 999.7 0.3 89
2020-03-22 16:00:00 13.7 8 Norte 18 Norte 0 999.5 -0.1 83
2020-03-22 15:00:00 13.9 10 Norte 21 Noroeste 0 999.5 -0.3 81
2020-03-22 14:00:00 14.2 10 Norte 18 Noroeste 0 999.4 -0.2 80
2020-03-22 13:00:00 13.7 9 Norte 18 Norte 0 999.6 0.3 82
2020-03-22 12:00:00 13.3 8 Noroeste 15 Noroeste 0 999.8 1 83
2020-03-22 11:00:00 12.6 5 Noroeste 11 Noroeste 0 999.6 1.1 83
2020-03-22 10:00:00 11.6 3 Sudoeste 8 Sudoeste 0 999.3 1.5 96
2020-03-22 09:00:00 11 6 Sudoeste 11 Sur 0 998.8 1.2 99
2020-03-22 08:00:00 10.8 0 Calma 9 Sudoeste 0 998.5 1.3 97
2020-03-22 07:00:00 10.8 5 Sudoeste 11 Oeste 0 997.8 0.6 95
2020-03-22 06:00:00 11.1 8 Oeste 13 Oeste 0 997.6 0.4 95
2020-03-22 05:00:00 11 8 Oeste 11 Oeste 0 997.2 0.1 95
2020-03-22 04:00:00 10.9 4 Sudoeste 9 Oeste 0 997.2 0.2 93
2020-03-22 03:00:00 11 2 Sudoeste 13 Oeste 0 997.2 0.1 91
2020-03-22 02:00:00 11 9 Oeste 11 Oeste 0 997.1 0.1 93
2020-03-22 01:00:00 10.9 6 Oeste 11 Oeste 0 997 0.1 97
2020-03-22 00:00:00 10.9 4 Oeste 15 Oeste 0 997.1 0.7 98
2020-03-21 23:00:00 10.9 6 Oeste 13 Oeste 0 997 1.2 99
2020-03-21 22:00:00 10.8 2 Noroeste 11 Oeste 0 996.9 1.6 98
2020-03-21 21:00:00 11 6 Noroeste 11 Norte 0 996.4 1.6 97
2020-03-21 20:00:00 11 0 Calma 9 Sudoeste 0 995.8 1.1 93
2020-03-21 19:00:00 11.5 4 Oeste 13 Noroeste 0 995.3 0.6 91
2020-03-21 18:00:00 11.7 6 Noroeste 13 Noroeste 0 994.8 0.1 91
2020-03-21 17:00:00 11.8 6 Noroeste 18 Oeste 0 994.7 -0.5 90
2020-03-21 16:00:00 11.6 10 Noroeste 18 Noroeste 0 994.7 -0.6 93
2020-03-21 15:00:00 11.6 9 Noroeste 18 Noroeste 0 994.7 -0.8 95
2020-03-21 14:00:00 11.7 8 Noroeste 15 Noroeste 0 995.2 -0.3 94
2020-03-21 13:00:00 11 6 Noroeste 17 Noroeste 0 995.3 -0.3 100
2020-03-21 12:00:00 10.9 9 Noroeste 17 Oeste 0 995.5 0.1 100
2020-03-21 11:00:00 10.7 10 Oeste 17 Oeste 0 995.5 0.6 100
2020-03-21 10:00:00 10.5 10 Oeste 18 Oeste 0 995.6 0.7 100
2020-03-21 09:00:00 10.3 11 Oeste 21 Oeste 0 995.4 0 100
2020-03-21 08:00:00 10 9 Sur 17 Sudoeste 0 994.9 -0.8 100
2020-03-21 07:00:00 10 6 Sur 11 Sur 0 994.9 -1.2 100
2020-03-21 06:00:00 10.1 4 Este 8 Este 0 995.4 -1.2 100
2020-03-21 05:00:00 10.1 0 Calma 9 Nordeste 0 995.7 -1.2 100
2020-03-21 04:00:00 10.3 2 Norte 8 Oeste 0 996.1 -1.1 100
2020-03-21 03:00:00 10.4 4 Oeste 9 Noroeste 0 996.6 -0.9 100
2020-03-21 02:00:00 10.6 0 Calma 5 Nordeste 0 996.9 -0.9 100
2020-03-21 01:00:00 10.5 0 Calma 8 Noroeste 0 997.2 -0.7 100
2020-03-21 00:00:00 10.5 0 Calma 8 Norte 0 997.5 -0.2 100
2020-03-20 23:00:00 10.6 2 Este 8 Nordeste 0 997.8 0.5 100
2020-03-20 22:00:00 10.6 4 Este 11 Este 0 997.9 0.9 100
2020-03-20 21:00:00 10.7 7 Sudeste 15 Este 0 997.7 0.6 100
2020-03-20 20:00:00 11 7 Este 13 Este 0 997.3 0 100
2020-03-20 19:00:00 12.4 9 Este 18 Este 0 997 -0.6 92
2020-03-20 18:00:00 12.8 11 Este 17 Este 0 997.1 -0.9 92
2020-03-20 17:00:00 13.1 9 Nordeste 15 Este 0 997.3 -0.9 90
2020-03-20 16:00:00 12.5 9 Este 15 Este 0 997.6 -1 94
2020-03-20 15:00:00 11.9 11 Este 17 Nordeste 0 998 -0.9 97
2020-03-20 14:00:00 11.8 6 Nordeste 11 Este 0 998.2 -0.6 96
2020-03-20 13:00:00 11.1 5 Norte 9 Noroeste 0 998.6 -0.3 99
2020-03-20 12:00:00 11.1 4 Este 11 Nordeste 0 998.9 0 99
2020-03-20 11:00:00 11.3 0 Calma 11 Oeste 0 998.8 0.1 99
2020-03-20 10:00:00 10.6 4 Noroeste 9 Oeste 0 998.9 0.2 100
2020-03-20 09:00:00 10.4 0 Calma 11 Oeste 0 998.9 0.2 100
2020-03-20 08:00:00 10.1 3 Sudoeste 9 Sudoeste 0 998.7 -0.3 100
2020-03-20 07:00:00 10.2 3 Sudoeste 9 Sudoeste 0 998.7 -0.5 100
2020-03-20 06:00:00 10.2 3 Este 5 Este 0 998.7 -1 100
2020-03-20 05:00:00 10.3 4 Este 8 Nordeste 0 999 -1 100
2020-03-20 04:00:00 10.5 0 Calma 8 Sudeste 0 999.2 -1 100
2020-03-20 03:00:00 10.5 2 Este 5 Este 0 999.7 -0.9 100
2020-03-20 02:00:00 10.6 3 Este 5 Este 0 1000 -0.9 100
2020-03-20 01:00:00 10.6 0 Calma -- -- -- 1000.2 -1 100
2020-03-20 00:00:00 10.6 0 Calma -- -- 0 1000.6 -0.4 100
2020-03-19 23:00:00 10.6 0 Calma 8 Norte 0 1000.9 -0.2 100
2020-03-19 22:00:00 10.7 3 Norte 11 Noroeste 0 1001.2 0.3 100
2020-03-19 21:00:00 10.7 3 Nordeste 13 Este 0 1001 0 100
2020-03-19 20:00:00 10.7 6 Este 13 Este 0 1001.1 -0.1 100
2020-03-19 19:00:00 11.1 10 Este 15 Este 0 1000.9 -0.7 99
2020-03-19 18:00:00 12.2 10 Este 21 Este 0.2 1001 -1.1 95
2020-03-19 17:00:00 11.6 10 Nordeste 18 Este 0 1001.2 -1.4 99
2020-03-19 16:00:00 11.4 9 Este 18 Este 0 1001.6 -1.7 97
2020-03-19 15:00:00 11.6 6 Nordeste 15 Nordeste 0 1002.1 -1.8 97
2020-03-19 14:00:00 11.5 9 Este 15 Este 0 1002.6 -1.8 99
2020-03-19 13:00:00 11.8 9 Este 15 Este 0 1003.3 -1.5 95
2020-03-19 12:00:00 11.5 3 Este 13 Este 0 1003.9 -0.9 96
2020-03-19 11:00:00 10.6 9 Sudeste 15 Este 0 1004.4 -0.3 100
2020-03-19 10:00:00 10 4 Sudeste 11 Sur 0 1004.8 0 100
2020-03-19 09:00:00 9.7 4 Sur 9 Sur 0 1004.8 -0.2 100
2020-03-19 08:00:00 9.7 4 Sur 11 Sudeste 0 1004.7 -0.5 100
2020-03-19 07:00:00 9.8 5 Sudeste 9 Sur 0 1004.8 -0.9 100
2020-03-19 06:00:00 10 6 Sudeste 9 Este 0 1005 -1.5 100
2020-03-19 05:00:00 10 4 Este 8 Este 0 1005.2 -1.8 100
2020-03-19 04:00:00 10.1 3 Este 8 Sudeste 0 1005.7 -1.6 100
2020-03-19 03:00:00 10.2 3 Norte 8 Norte 0 1006.5 -1.2 100
2020-03-19 02:00:00 10.3 0 Calma 4 Sudoeste 0 1007 -1 100
2020-03-19 01:00:00 10.5 3 Este 5 Este 0 1007.3 -0.7 100
2020-03-19 00:00:00 10.4 0 Calma 5 Nordeste 0 1007.7 -0.4 100
2020-03-18 23:00:00 10.7 2 Este 9 Este 0 1008 0 100
2020-03-18 22:00:00 10.9 6 Sudeste 11 Este 0 1008 -0.1 99
2020-03-18 21:00:00 11 7 Este 13 Este 0 1008.1 -0.1 97
2020-03-18 20:00:00 11.4 6 Este 17 Este 0 1008 -0.5 94
2020-03-18 19:00:00 12.1 7 Nordeste 13 Nordeste 0 1008.1 -0.8 93
2020-03-18 18:00:00 12.1 11 Este 17 Este 0 1008.2 -0.9 91
2020-03-18 17:00:00 12.6 12 Este 17 Este 0 1008.5 -1 87
2020-03-18 16:00:00 13.2 12 Este 18 Este 0 1008.9 -1.2 83
2020-03-18 15:00:00 12.9 10 Norte 18 Este 0 1009.1 -1.4 84
2020-03-18 14:00:00 14.3 12 Este 17 Este 0 1009.5 -1.5 80
2020-03-18 13:00:00 13.6 11 Este 17 Este 0 1010.1 -1.3 81
2020-03-18 12:00:00 13.7 8 Norte 17 Noroeste 0 1010.5 -0.9 78
2020-03-18 11:00:00 12.7 6 Sudeste 11 Sudeste 0 1011 -0.5 78
2020-03-18 10:00:00 10.1 5 Sudeste 15 Sur 0 1011.4 -0.2 92
2020-03-18 09:00:00 9.2 9 Sur 17 Sur 0 1011.4 0 96
2020-03-18 08:00:00 9.4 7 Sur 15 Sudoeste 0 1011.5 0.2 94
2020-03-18 07:00:00 9.8 7 Sur 15 Sur 0 1011.6 0 93
2020-03-18 06:00:00 9.9 9 Sur 13 Sur 0 1011.4 -0.6 92
2020-03-18 05:00:00 10.1 7 Sur 15 Sudoeste 0 1011.3 -1.1 90
2020-03-18 04:00:00 10.2 8 Sur 11 Sur 0 1011.6 -1 91
2020-03-18 03:00:00 9.8 7 Sur 9 Sur 0 1012 -1 93
2020-03-18 02:00:00 10.3 5 Sur 11 Sur 0 1012.4 -0.7 92
2020-03-18 01:00:00 10.3 7 Sudeste 9 Sudeste 0 1012.6 -0.6 97
2020-03-18 00:00:00 10.3 6 Sudeste 13 Sudeste 0 1013 -0.2 97
2020-03-17 23:00:00 10.3 10 Sudeste 13 Sudeste 0 1013.1 0.1 96
2020-03-17 22:00:00 10.4 10 Sudeste 18 Sudeste 0 1013.2 0.6 96
2020-03-17 21:00:00 10.9 13 Sudeste 18 Sudeste 0 1013.2 0.5 91
2020-03-17 20:00:00 11.1 12 Este 28 Este 0 1013 0.3 87
2020-03-17 19:00:00 11.4 16 Este 28 Este 0 1012.6 -0.3 82
2020-03-17 18:00:00 11.8 19 Este 33 Este 0 1012.7 -0.4 79
2020-03-17 17:00:00 12 21 Este 33 Este 0 1012.7 -0.6 79
2020-03-17 16:00:00 12 17 Este 30 Este 0 1012.9 -0.9 79
2020-03-17 15:00:00 12 14 Este 28 Este 0 1013.1 -0.9 78
2020-03-17 14:00:00 12.8 15 Este 30 Sudeste 0 1013.3 -0.7 73
2020-03-17 13:00:00 12.2 14 Este 22 Este 0 1013.8 -0.1 76
2020-03-17 12:00:00 11.6 14 Este 24 Sudeste 0 1014 0.4 78
2020-03-17 11:00:00 10.5 12 Sudeste 18 Este 0 1014 0.5 76
2020-03-17 10:00:00 9.5 11 Sudeste 15 Este 0 1013.9 1 82
2020-03-17 09:00:00 8.6 8 Sudeste 15 Sudeste 0 1013.6 1.1 91
2020-03-17 08:00:00 7.8 5 Sudeste 9 Sur 0 1013.5 1.3 94
2020-03-17 07:00:00 7.8 5 Sudeste 13 Sudeste 0 1012.9 0.6 94
2020-03-17 06:00:00 7.3 10 Sudeste 13 Sudeste 0 1012.5 -0.3 92
2020-03-17 05:00:00 6.7 8 Sudeste 9 Sudeste 0 1012.2 -- 94
2020-03-17 04:00:00 6.1 6 Sur 11 Sudeste 0 1012.3 -0.5 89
2020-03-17 03:00:00 5 6 Sudeste -- -- 0 1012.8 0 93
2020-03-17 02:00:00 -- -- -- -- -- -- -- -- --
2020-03-17 01:00:00 6.5 8 Este 13 Este 0 1012.8 0.4 80
2020-03-17 00:00:00 6.2 9 Sudeste 18 Este 0 1012.8 0.9 82
2020-03-16 23:00:00 9.5 15 Este 28 Nordeste 0 1012.8 1.6 67
2020-03-16 22:00:00 9.5 11 Nordeste 22 Nordeste 0 1012.4 2 67
2020-03-16 21:00:00 9.5 9 Este 24 Este 0 1011.9 2.1 68
2020-03-16 20:00:00 9.3 9 Este 21 Este 0 1011.2 1.9 69
2020-03-16 19:00:00 9.9 10 Nordeste 24 Nordeste 0 1010.4 1.6 63
2020-03-16 18:00:00 10.6 12 Nordeste 28 Nordeste 0 1009.8 1.1 60
2020-03-16 17:00:00 11.4 15 Nordeste 30 Nordeste 0 1009.3 0.5 64
2020-03-16 16:00:00 11.9 15 Nordeste 32 Nordeste 0 1008.8 0.4 61
2020-03-16 15:00:00 11.7 16 Nordeste 30 Este 0 1008.7 0.8 65
2020-03-16 14:00:00 10.8 13 Nordeste 26 Nordeste 0.1 1008.8 1.3 71
2020-03-16 13:00:00 11.1 12 Este 30 Nordeste 0 1008.4 1.6 61
2020-03-16 12:00:00 10.4 17 Nordeste 32 Nordeste 0.1 1007.9 1.8 74
2020-03-16 11:00:00 9.8 15 Nordeste 41 Nordeste 0.8 1007.5 2.4 76
2020-03-16 10:00:00 10 19 Nordeste 33 Nordeste 0.1 1006.8 2.5 72
2020-03-16 09:00:00 9.1 15 Nordeste 30 Nordeste 0 1006.1 2.5 77
2020-03-16 08:00:00 8 5 Oeste 24 Nordeste 0 1005.1 2.1 75
2020-03-16 07:00:00 8 9 Este 39 Nordeste 0.9 1004.3 1.5 75
2020-03-16 06:00:00 6.2 8 Sudoeste 22 Oeste 0 1003.6 0.9 90
2020-03-16 05:00:00 5.1 8 Sudoeste 18 Oeste 0.6 1003 0.6 97
2020-03-16 04:00:00 5.1 11 Sudoeste 18 Sudoeste 0 1002.8 0.7 95
2020-03-16 03:00:00 5 15 Sudoeste 22 Sudoeste 0 1002.7 0.5 96
2020-03-16 02:00:00 5.1 7 Sudoeste 18 Sudoeste 0.2 1002.4 0.6 91
2020-03-16 01:00:00 4.8 14 Sudoeste 28 Sudoeste 0 1002.1 0.5 93
2020-03-16 00:00:00 4.8 20 Sudoeste 33 Sudoeste 0.2 1002.2 1.1 96
2020-03-15 23:00:00 4.8 19 Sudoeste 30 Sudoeste 0.6 1001.8 0.7 96
2020-03-15 22:00:00 4.8 13 Sudoeste 24 Sudoeste 0.5 1001.6 0.9 93
2020-03-15 21:00:00 4.8 14 Sudoeste 30 Sudoeste 0.7 1001.1 0.7 94
2020-03-15 20:00:00 5 18 Sudoeste 28 Sudoeste 1.5 1001.1 1.5 94
2020-03-15 19:00:00 5.4 18 Sudoeste 28 Oeste 0.8 1000.7 1.5 93
2020-03-15 18:00:00 5.8 20 Oeste 48 Oeste 2.2 1000.4 1.7 93
2020-03-15 17:00:00 7.5 27 Noroeste 50 Noroeste 0.6 999.6 1.5 94
2020-03-15 16:00:00 8.9 18 Noroeste 39 Noroeste 0 999.2 2.4 81
2020-03-15 15:00:00 8.9 23 Noroeste 46 Noroeste 0 998.7 1.2 90
2020-03-15 14:00:00 10.8 24 Noroeste 50 Noroeste 0 998.1 -0.1 83
2020-03-15 13:00:00 16.8 11 Oeste 28 Sudoeste 0 996.8 -2.1 51
2020-03-15 12:00:00 13.8 15 Sur 24 Sur 0 997.5 -1.4 65
2020-03-15 11:00:00 12.2 12 Sudoeste 17 Sudoeste 0 998.2 -0.7 74
2020-03-15 10:00:00 9.6 10 Sudoeste 13 Sudoeste 0 998.9 0.1 86
2020-03-15 09:00:00 9.1 10 Sudoeste 22 Oeste 0 998.9 0.5 89
2020-03-15 08:00:00 9.3 14 Oeste 30 Oeste 0 998.9 0.4 90
2020-03-15 07:00:00 7.4 12 Oeste 24 Oeste 0 998.8 0 98
2020-03-15 06:00:00 6.4 9 Sudoeste 15 Oeste 0 998.4 -1.4 98
2020-03-15 05:00:00 6.5 10 Sudoeste 28 Sudoeste 0 998.5 -2.4 94
2020-03-15 04:00:00 7 17 Sudoeste 28 Sudoeste 0 998.8 -3 94
2020-03-15 03:00:00 7.7 14 Sudoeste 24 Sur 0 999.8 -3.2 91
2020-03-15 02:00:00 7.5 14 Sur 24 Sudoeste 0 1000.9 -2.6 92
2020-03-15 01:00:00 7.5 11 Sudoeste 21 Sur 0 1001.8 -2.2 92
2020-03-15 00:00:00 7.8 9 Sudoeste 13 Sur 0 1003 -1.6 90
2020-03-14 23:00:00 8.2 3 Sudoeste 9 Sur 0 1003.5 -1.3 90
2020-03-14 22:00:00 7.2 6 Sur 13 Sudeste 0 1004 -1 92
2020-03-14 21:00:00 9.2 12 Este 21 Este 0 1004.6 -0.7 82
2020-03-14 20:00:00 10.2 14 Este 21 Este 0 1004.8 -1 78
2020-03-14 19:00:00 11.8 11 Este 21 Este 0 1005 -1.2 69
2020-03-14 18:00:00 12.7 11 Este 24 Nordeste 0 1005.3 -1.2 64
2020-03-14 17:00:00 13.1 13 Nordeste 22 Este 0 1005.8 -1.5 62
2020-03-14 16:00:00 13.3 9 Norte 17 Norte 0 1006.2 -1.8 65
2020-03-14 15:00:00 13.9 9 Norte 15 Norte 0 1006.5 -2.1 60
2020-03-14 14:00:00 14.2 7 Norte 15 Norte 0 1007.3 -1.9 61
2020-03-14 13:00:00 13.9 9 Norte 15 Norte 0 1008 -1.2 61
2020-03-14 12:00:00 14.2 5 Noroeste 18 Sur 0 1008.6 -0.2 58
2020-03-14 11:00:00 12.1 13 Sudoeste 22 Sur 0 1009.2 0.8 65
2020-03-14 10:00:00 9.9 16 Sudoeste 28 Sudoeste 0 1009.2 1 71
2020-03-14 09:00:00 8.3 15 Sudoeste 24 Sudoeste 0 1008.8 0.8 79
2020-03-14 08:00:00 7.2 14 Sudoeste 22 Sudoeste 0 1008.4 0.4 93
2020-03-14 07:00:00 7.2 11 Sudoeste 17 Sur 0 1008.2 0 92
2020-03-14 06:00:00 7.9 9 Sudoeste 13 Sudoeste 0 1008 -0.7 87
2020-03-14 05:00:00 8.8 6 Sudoeste 13 Sudoeste 0 1008 -1.1 89
2020-03-14 04:00:00 8.6 8 Sudoeste 13 Sudoeste 0 1008.2 -1 92
2020-03-14 03:00:00 8.8 6 Sudoeste 11 Sudoeste 0 1008.7 -0.6 98
2020-03-14 02:00:00 8.4 5 Sudoeste 8 Sudoeste 0 1009.1 -0.2 96
2020-03-14 01:00:00 9.3 5 Oeste 9 Oeste 0 1009.2 0.5 95
2020-03-14 00:00:00 9.2 4 Sudoeste 8 Sudoeste 0 1009.3 0.7 91
2020-03-13 23:00:00 9.1 4 Oeste 13 Sur 0 1009.3 1.3 90
2020-03-13 22:00:00 9.3 11 Sur 15 Sudeste 0 1008.7 1.1 88
2020-03-13 21:00:00 9.9 8 Este 13 Sudeste 0 1008.6 1.4 84
2020-03-13 20:00:00 10.1 10 Este 17 Este 0 1008 0.1 83
2020-03-13 19:00:00 10.7 9 Este 21 Este 0 1007.6 -0.9 79
2020-03-13 18:00:00 12 15 Este 26 Este 0 1007.2 -1.8 72
2020-03-13 17:00:00 11.7 17 Este 24 Este 0 1007.9 -1.5 74
2020-03-13 16:00:00 11.4 13 Este 26 Este 0 1008.5 -1.5 75
2020-03-13 15:00:00 11.4 14 Este 24 Nordeste 0 1009 -1 75
2020-03-13 14:00:00 11.6 15 Este 26 Nordeste 0 1009.4 -0.6 74
2020-03-13 13:00:00 11.2 17 Este 33 Este 0 1010 0.1 83
2020-03-13 12:00:00 11.3 13 Este 30 Nordeste 0 1010 0.4 76
2020-03-13 11:00:00 10.1 14 Este 30 Este 0 1010 0.6 91
2020-03-13 10:00:00 9.7 13 Este 22 Este 0 1009.9 0.3 93
2020-03-13 09:00:00 8.9 11 Sudeste 17 Sudeste 0 1009.6 -0.1 99
2020-03-13 08:00:00 8.3 10 Sudeste 18 Sudeste 0 1009.4 -0.6 100
2020-03-13 07:00:00 8.4 14 Sudeste 21 Este 0 1009.6 -0.6 100
2020-03-13 06:00:00 8.4 14 Sudeste 18 Sudeste 0 1009.7 -0.9 100
2020-03-13 05:00:00 8.4 10 Este 17 Este 0.1 1010 -0.8 100
2020-03-13 04:00:00 8.6 12 Este 22 Este 0 1010.2 -0.8 98
2020-03-13 03:00:00 8.7 6 Sudeste 13 Este 0 1010.6 -0.6 97
2020-03-13 02:00:00 8.5 6 Este 13 Este 0 1010.8 -0.2 98
2020-03-13 01:00:00 8.7 8 Sudeste 13 Sudeste 0 1011 0.1 99
2020-03-13 00:00:00 8.9 10 Sudeste 18 Este 0.1 1011.2 0.4 97
2020-03-12 23:00:00 9 8 Sudeste 13 Este 0 1011 0.5 94
2020-03-12 22:00:00 9.2 6 Sudeste 13 Nordeste 0 1010.9 0.9 98
2020-03-12 21:00:00 9.4 7 Nordeste 17 Nordeste 0 1010.8 1.3 89
2020-03-12 20:00:00 9.1 9 Este 24 Nordeste 0.1 1010.5 1.4 99
2020-03-12 19:00:00 9.4 14 Nordeste 22 Nordeste 0.2 1010 1.1 100
2020-03-12 18:00:00 9.8 13 Nordeste 22 Nordeste 0.2 1009.5 0.7 99
2020-03-12 17:00:00 10.4 9 Nordeste 21 Este 0.6 1009.1 -0.1 100
2020-03-12 16:00:00 10.8 9 Nordeste 18 Nordeste 0 1008.9 -0.5 99
2020-03-12 15:00:00 12.7 0 Calma 15 Norte 0 1008.8 -0.5 90
2020-03-12 14:00:00 13.1 7 Noroeste 13 Norte 0 1009.2 0 90
2020-03-12 13:00:00 12.6 8 Noroeste 15 Noroeste 0 1009.4 0.6 96
2020-03-12 12:00:00 12.2 5 Oeste 9 Oeste 0 1009.3 0.9 100
2020-03-12 11:00:00 11.4 2 Oeste 11 Oeste 1.3 1009.2 1.5 100
2020-03-12 10:00:00 11.3 9 Oeste 22 Noroeste 0.6 1008.8 1.4 100
2020-03-12 09:00:00 11.7 13 Oeste 21 Oeste 0 1008.4 1.1 100
2020-03-12 08:00:00 12.1 0 Calma 5 Sudeste 0 1007.7 0.6 94
2020-03-12 07:00:00 12.2 3 Sudoeste 9 Oeste 0 1007.4 -0.1 93
2020-03-12 06:00:00 12.4 5 Noroeste 11 Noroeste 0 1007.3 -0.4 92
2020-03-12 05:00:00 12.2 4 Sudoeste 11 Sur 0 1007.1 -0.6 92
2020-03-12 04:00:00 12.3 8 Sudoeste 11 Sudoeste 0 1007.5 -0.4 92
2020-03-12 03:00:00 12.3 8 Sudoeste 15 Sur 0 1007.7 -0.3 91
2020-03-12 02:00:00 12.4 9 Sur 17 Sur 0 1007.7 -0.4 89
2020-03-12 01:00:00 12.5 10 Sur 13 Sur 0 1007.9 -0.1 87
2020-03-12 00:00:00 12.6 6 Sur 9 Sur 0 1008 0 89
2020-03-11 23:00:00 12.6 6 Sudoeste 11 Sur 0 1008.1 -0.1 87
2020-03-11 22:00:00 12.7 6 Sur 17 Sur 0 1008 0 91
2020-03-11 21:00:00 12.5 0 Calma 2 Sudeste 0 1008 0.3 94
2020-03-11 20:00:00 12.7 0 Calma 8 Norte 0 1008.2 0.8 96
2020-03-11 19:00:00 13.1 0 Calma 11 Norte 0 1008 1.1 92
2020-03-11 18:00:00 14 5 Norte 15 Norte 0 1007.7 0.9 86
2020-03-11 17:00:00 14.1 8 Norte 18 Nordeste 0 1007.4 -0.1 84
2020-03-11 16:00:00 15.1 10 Nordeste 21 Nordeste 0 1006.9 -1.3 72
2020-03-11 15:00:00 16.1 12 Este 21 Este 0 1006.8 -1.6 69
2020-03-11 14:00:00 15.7 13 Este 22 Este 0 1007.5 -1.1 70
2020-03-11 13:00:00 15.2 12 Nordeste 21 Nordeste 0 1008.2 -0.7 73
2020-03-11 12:00:00 14.7 8 Norte 13 Norte 0 1008.4 -0.7 74
2020-03-11 11:00:00 14.6 7 Sudoeste 11 Sudoeste 0 1008.6 -0.6 71
2020-03-11 10:00:00 12 10 Sudoeste 21 Sudoeste 0 1008.9 -0.4 78
2020-03-11 09:00:00 9.4 14 Sudoeste 22 Sudoeste 0 1009.1 -0.3 87
2020-03-11 08:00:00 8.2 15 Sudoeste 22 Sudoeste 0 1009.2 -0.1 92
2020-03-11 07:00:00 8.6 14 Sudoeste 18 Sudoeste 0 1009.3 -0.1 91
2020-03-11 06:00:00 8.5 13 Sudoeste 21 Sudoeste 0 1009.4 -0.5 90
2020-03-11 05:00:00 8.9 13 Sudoeste 21 Sudoeste 0 1009.3 -0.7 88
2020-03-11 04:00:00 8.9 14 Sudoeste 18 Sudoeste 0 1009.4 -0.8 88
2020-03-11 03:00:00 9.3 10 Sudoeste 17 Sudoeste 0 1009.9 -0.6 85
2020-03-11 02:00:00 10 13 Sudoeste 21 Sur 0 1010 -0.8 81
2020-03-11 01:00:00 10 13 Sudoeste 21 Sudoeste 0 1010.2 -0.8 82
2020-03-11 00:00:00 10.5 13 Sudoeste 21 Sur 0 1010.5 -0.4 82
2020-03-10 23:00:00 11.1 9 Sudoeste 15 Sudoeste 0 1010.8 0.5 80
2020-03-10 22:00:00 11 8 Sudoeste 13 Sur 0 1011 0.8 82
2020-03-10 21:00:00 10.9 5 Sur 11 Sudeste 0 1010.9 1 77
2020-03-10 20:00:00 12.1 7 Sudeste 9 Sudeste 0 1010.3 0.6 73
2020-03-10 19:00:00 13.9 4 Sudeste 8 Sudeste 0 1010.2 0.5 66
2020-03-10 18:00:00 14.8 4 Norte 17 Nordeste 0 1009.9 0.2 60
2020-03-10 17:00:00 15.4 6 Nordeste 15 Norte 0 1009.7 -0.7 52
2020-03-10 16:00:00 16.2 7 Norte 13 Este 0 1009.7 -1.4 49
2020-03-10 15:00:00 15.7 7 Nordeste 15 Nordeste 0 1009.7 -1.8 58
2020-03-10 14:00:00 14.1 8 Norte 17 Norte 0 1010.4 -0.8 71
2020-03-10 13:00:00 13.4 8 Nordeste 15 Nordeste 0 1011.1 0 76
2020-03-10 12:00:00 12.8 7 Nordeste 13 Nordeste 0 1011.5 1 78
2020-03-10 11:00:00 12.4 5 Oeste 13 Sudeste 0 1011.2 1.4 79
2020-03-10 10:00:00 11.5 8 Sudeste 13 Sudeste 0 1011.1 1.8 87
2020-03-10 09:00:00 8.5 6 Sudeste 8 Sudeste 0 1010.5 0.7 97
2020-03-10 08:00:00 6.8 0 Calma 21 Sur 0 1009.8 -0.5 89
2020-03-10 07:00:00 7.5 11 Sur 21 Sur 0 1009.3 -1.4 90
2020-03-10 06:00:00 7.2 14 Sudoeste 21 Sudoeste 0 1009.8 -1.1 96
2020-03-10 05:00:00 7.8 12 Sudoeste 15 Sudoeste 0 1010.3 -0.8 96
2020-03-10 04:00:00 7.6 10 Sudoeste 13 Sur 0 1010.7 -0.9 98
2020-03-10 03:00:00 6.9 6 Sudoeste 9 Sur 0 1010.9 -1.1 96
2020-03-10 02:00:00 7.6 6 Sudoeste 11 Sur 0 1011.1 -1.3 92
2020-03-10 01:00:00 8 8 Sudoeste 11 Sudoeste 0 1011.6 -1.2 89
2020-03-10 00:00:00 9 7 Sudoeste 13 Sudoeste 0 1012 -1 85
2020-03-09 23:00:00 9.2 2 Sudoeste 13 Sudoeste 0 1012.4 -0.6 87
2020-03-09 22:00:00 10.2 9 Oeste 13 Oeste 0 1012.8 -0.1 83
2020-03-09 21:00:00 10.3 3 Oeste 13 Oeste 0 1013 0.3 83
2020-03-09 20:00:00 11.1 7 Oeste 15 Oeste 0 1013 0.1 82
2020-03-09 19:00:00 11.8 9 Noroeste 18 Oeste 0 1012.9 -0.1 77
2020-03-09 18:00:00 13.1 14 Oeste 21 Oeste 0 1012.7 -0.8 69
2020-03-09 17:00:00 13.4 11 Noroeste 22 Noroeste 0 1012.9 -1.2 69
2020-03-09 16:00:00 13.3 12 Noroeste 22 Noroeste 0 1013 -1.7 67
2020-03-09 15:00:00 13.7 12 Noroeste 30 Oeste 0 1013.5 -1.7 66
2020-03-09 14:00:00 13.9 19 Oeste 32 Noroeste 0 1014.1 -0.9 64
2020-03-09 13:00:00 13.5 18 Oeste 26 Oeste 0 1014.7 0.2 60
2020-03-09 12:00:00 13.2 20 Oeste 28 Oeste 0 1015.2 1.7 57
2020-03-09 11:00:00 12.2 18 Oeste 32 Oeste 0 1015 2.2 60
2020-03-09 10:00:00 11.1 18 Oeste 32 Oeste 0 1014.5 1.3 65
2020-03-09 09:00:00 9.3 12 Sudoeste 17 Sudoeste 0 1013.5 0.6 69
2020-03-09 08:00:00 8.5 12 Sudoeste 24 Oeste 0 1012.8 0.5 69
2020-03-09 07:00:00 9.9 16 Oeste 32 Oeste 0 1013.2 0.7 66
2020-03-09 06:00:00 9.9 19 Oeste 39 Oeste 0 1012.9 0 67
2020-03-09 05:00:00 10.3 22 Oeste 35 Oeste 0 1012.3 -0.1 66
2020-03-09 04:00:00 10.6 22 Oeste 35 Oeste 0 1012.5 0.1 70
2020-03-09 03:00:00 10.8 19 Oeste 39 Oeste 0 1012.9 0.4 71
2020-03-09 02:00:00 10.6 19 Oeste 39 Oeste 0 1012.4 0.1 74
2020-03-09 01:00:00 11.2 27 Oeste 45 Oeste 0 1012.4 1.1 71
2020-03-09 00:00:00 11.4 28 Oeste 48 Oeste 0 1012.5 2 77
2020-03-08 23:00:00 11.2 32 Oeste 59 Oeste 0.3 1012.3 2.3 82
2020-03-08 22:00:00 11.7 30 Oeste 48 Oeste 0 1011.3 2.2 81
2020-03-08 21:00:00 12.4 21 Oeste 45 Oeste 0 1010.5 2.1 71
2020-03-08 20:00:00 12 22 Oeste 42 Oeste 0 1010 2.1 79
2020-03-08 19:00:00 12.2 15 Oeste 54 Oeste 0 1009.1 1.9 79
2020-03-08 18:00:00 12.8 33 Oeste 55 Oeste 0 1008.4 1.3 69
2020-03-08 17:00:00 13 39 Oeste 55 Oeste 0 1007.9 0.8 68
2020-03-08 16:00:00 13.9 26 Oeste 45 Noroeste 0 1007.2 0.1 78
2020-03-08 15:00:00 14.1 16 Noroeste 42 Oeste 0 1007.1 -0.1 78
2020-03-08 14:00:00 14.8 25 Oeste 42 Oeste 0 1007.1 -0.4 72
2020-03-08 13:00:00 17.7 33 Oeste 54 Oeste 0 1007.1 -0.4 52
2020-03-08 12:00:00 16.9 18 Sudoeste 37 Sudoeste 0 1007.2 -0.2 58
2020-03-08 11:00:00 13.9 19 Sudoeste 37 Sudoeste 0 1007.5 0.5 65
2020-03-08 10:00:00 13 22 Sudoeste 37 Sudoeste 0 1007.5 0.7 66
2020-03-08 09:00:00 12.3 19 Sudoeste 33 Sudoeste 0 1007.4 0.6 64
2020-03-08 08:00:00 11.5 19 Sudoeste 32 Sudoeste 0 1007 -0.2 60
2020-03-08 07:00:00 9.3 16 Sudoeste 26 Sur 0 1006.8 -1.1 68
2020-03-08 06:00:00 8.2 17 Sudoeste 28 Sudoeste 0 1006.8 -1.3 73
2020-03-08 05:00:00 7.7 12 Sudoeste 22 Sudoeste 0 1007.2 -1.4 80
2020-03-08 04:00:00 6.4 12 Sudoeste 22 Sur 0 1007.9 -1.7 89
2020-03-08 03:00:00 6.4 15 Sudoeste 22 Sudoeste 0 1008.1 -1.8 86
2020-03-08 02:00:00 6.9 13 Sudoeste 22 Sur 0 1008.6 -1.6 82
2020-03-08 01:00:00 7.4 9 Sudoeste 18 Sur 0 1009.6 -0.8 78
2020-03-08 00:00:00 7.1 10 Sudoeste 17 Sudoeste 0 1009.9 -0.9 82
2020-03-07 23:00:00 7.6 10 Sudoeste 15 Sur 0 1010.2 -0.8 78
2020-03-07 22:00:00 7.6 8 Sur 11 Sur 0 1010.4 -0.3 72
2020-03-07 21:00:00 8.4 6 Sudeste 9 Sudeste 0 1010.8 0 74
2020-03-07 20:00:00 10.1 6 Sudeste 8 Sudeste 0 1011 0.2 71
2020-03-07 19:00:00 11.5 6 Este 8 Este 0 1010.7 -0.4 68
2020-03-07 18:00:00 12.5 5 Nordeste 11 Nordeste 0 1010.8 -0.8 64
2020-03-07 17:00:00 13.2 6 Norte 18 Noroeste 0 1010.8 -1.2 67
2020-03-07 16:00:00 14 11 Noroeste 22 Noroeste 0 1011.1 -1.6 67
2020-03-07 15:00:00 13.5 15 Oeste 28 Oeste 0 1011.6 -1.6 68
2020-03-07 14:00:00 13.1 9 Noroeste 22 Noroeste 0 1012 -1.5 63
2020-03-07 13:00:00 13.8 5 Noroeste 22 Oeste 0 1012.7 -0.7 56
2020-03-07 12:00:00 13.4 4 Oeste 15 Sudoeste 0 1013.2 0.2 61
2020-03-07 11:00:00 11.3 10 Sudoeste 18 Sudoeste 0 1013.5 1.2 70
2020-03-07 10:00:00 10.2 10 Sudoeste 21 Sudoeste 0 1013.4 1.3 77
2020-03-07 09:00:00 9.3 10 Sudoeste 18 Sudoeste 0 1013 1.1 85
2020-03-07 08:00:00 9.2 11 Sudoeste 26 Oeste 0 1012.3 0.7 88
2020-03-07 07:00:00 10.4 17 Oeste 28 Oeste 0 1012.1 0.4 90
2020-03-07 06:00:00 10.5 22 Oeste 37 Oeste 0 1011.9 -0.3 92
2020-03-07 05:00:00 9.8 18 Oeste 32 Oeste 0 1011.6 -0.7 94
2020-03-07 04:00:00 8.9 11 Sudoeste 22 Sudoeste 0.1 1011.7 -0.5 95
2020-03-07 03:00:00 9.1 15 Sudoeste 24 Sur 0 1012.2 0 86
2020-03-07 02:00:00 9.8 14 Oeste 28 Oeste 0 1012.3 0.2 84
2020-03-07 01:00:00 9.9 18 Oeste 37 Oeste 0 1012.2 0.4 83
2020-03-07 00:00:00 8.9 19 Oeste 32 Oeste 0.2 1012.2 0.6 92
2020-03-06 23:00:00 8.1 17 Sudoeste 28 Sudoeste 0.2 1012.1 0.9 87
2020-03-06 22:00:00 9 16 Oeste 50 Oeste 0 1011.8 1.2 82
2020-03-06 21:00:00 10.4 28 Oeste 45 Oeste 0 1011.6 1.7 65
2020-03-06 20:00:00 10.4 31 Oeste 52 Oeste 0 1011.2 2 66
2020-03-06 19:00:00 10.3 30 Oeste 54 Noroeste 0 1010.6 2.1 65
2020-03-06 18:00:00 10.4 29 Oeste 54 Oeste 0 1009.9 1.9 63
2020-03-06 17:00:00 9.7 39 Oeste 58 Oeste 0 1009.2 1.1 70
2020-03-06 16:00:00 11.4 40 Oeste 63 Oeste 0 1008.5 0.9 59
2020-03-06 15:00:00 10.3 34 Noroeste 63 Oeste 1.1 1008 0.7 64
2020-03-06 14:00:00 7.9 27 Noroeste 67 Oeste 0.5 1008.1 1.8 81
2020-03-06 13:00:00 11.2 35 Oeste 55 Oeste 0 1007.6 2.2 63
2020-03-06 12:00:00 9.8 28 Noroeste 55 Noroeste 0.1 1007.3 3.4 65
2020-03-06 11:00:00 9.1 33 Noroeste 55 Noroeste 0.7 1006.3 3.8 68
2020-03-06 10:00:00 9 35 Noroeste 82 Noroeste 0.6 1005.4 4.2 70
2020-03-06 09:00:00 8.6 39 Noroeste 72 Noroeste 0 1003.9 3.6 73
2020-03-06 08:00:00 7.7 42 Noroeste 68 Oeste 1.4 1002.5 3.3 82
2020-03-06 07:00:00 7.9 51 Oeste 96 Oeste 1 1001.2 2.2 83
2020-03-06 06:00:00 6.5 41 Oeste 98 Oeste 2.7 1000.3 1.6 91
2020-03-06 05:00:00 8.1 48 Oeste 87 Oeste 0.6 999.2 0.8 72
2020-03-06 04:00:00 7.8 43 Oeste 87 Oeste 2.6 999 0.3 78
2020-03-06 03:00:00 8.1 45 Oeste 80 Oeste 3.1 998.7 0.3 77
2020-03-06 02:00:00 9.2 35 Oeste 61 Oeste 0.2 998.4 0.1 74
2020-03-06 01:00:00 9 37 Oeste 72 Oeste 0.8 998.7 0.1 75
2020-03-06 00:00:00 9.2 35 Oeste 52 Oeste 0.2 998.4 -1.1 73
2020-03-05 23:00:00 9.2 19 Sudoeste 33 Sudoeste 0 998.3 -1.5 70
2020-03-05 22:00:00 8.6 14 Sudoeste 28 Oeste 0 998.6 -1.2 73
2020-03-05 21:00:00 10.4 22 Oeste 39 Oeste 0.1 999.5 0.2 69
2020-03-05 20:00:00 10.5 26 Oeste 58 Oeste 0 999.8 0.8 71
2020-03-05 19:00:00 11 37 Oeste 59 Oeste 0 999.8 1.1 70
2020-03-05 18:00:00 11.1 40 Oeste 58 Oeste 0 999.3 0.7 76
2020-03-05 17:00:00 11.1 38 Oeste 67 Oeste 0.3 999 1.2 78
2020-03-05 16:00:00 11.4 45 Oeste 59 Oeste 0.1 998.7 1.8 71
2020-03-05 15:00:00 10.7 31 Oeste 71 Oeste 0.1 998.6 2.8 81
2020-03-05 14:00:00 10.9 45 Oeste 68 Oeste 2.1 997.8 4.3 81
2020-03-05 13:00:00 11.2 50 Oeste 71 Oeste 0.4 996.9 5.2 82
2020-03-05 12:00:00 10.1 41 Oeste 74 Oeste 3.8 995.8 4 93
2020-03-05 11:00:00 11.4 32 Oeste 74 Oeste 0.3 993.5 2.2 70
2020-03-05 10:00:00 13 33 Oeste 67 Oeste 0 991.7 0.3 54
2020-03-05 09:00:00 12.1 39 Oeste 63 Oeste 0 991.8 1.4 57
2020-03-05 08:00:00 11.2 32 Oeste 54 Oeste 0.3 991.3 1.3 72
2020-03-05 07:00:00 11 23 Oeste 65 Noroeste 1.7 991.4 2.9 86
2020-03-05 06:00:00 11.4 42 Oeste 63 Oeste 3.5 990.4 0.6 100
2020-03-05 05:00:00 11.6 30 Noroeste 61 Oeste 4.3 990 -0.9 100
2020-03-05 04:00:00 18.5 36 Sudoeste 55 Sudoeste 0 988.5 -4.2 52
2020-03-05 03:00:00 18.8 34 Oeste 59 Sudoeste 0 989.8 -4.2 50
2020-03-05 02:00:00 18.6 20 Oeste 35 Oeste 0 990.9 -4.1 51
2020-03-05 01:00:00 18.6 24 Oeste 46 Oeste 0 992.7 -3.8 54
2020-03-05 00:00:00 18 14 Oeste 35 Sudoeste 0 994 -3 58
2020-03-04 23:00:00 18.2 26 Sudoeste 39 Sudoeste 0 995 -2.6 57
2020-03-04 22:00:00 18.1 18 Sudoeste 33 Oeste 0 996.5 -1.3 57
2020-03-04 21:00:00 18.3 17 Oeste 37 Sudoeste 0 997 -1.3 56
2020-03-04 20:00:00 18.3 17 Oeste 33 Sudoeste 0 997.6 -1.3 52
2020-03-04 19:00:00 18.7 13 Oeste 46 Sudoeste 0 997.8 -1.5 48
2020-03-04 18:00:00 19.6 33 Sudoeste 59 Oeste 0 998.3 -1.5 45
2020-03-04 17:00:00 19.7 24 Oeste 59 Oeste 0 998.9 -1.5 49
2020-03-04 16:00:00 20.7 26 Oeste 52 Oeste 0 999.3 -1.7 48
2020-03-04 15:00:00 20.6 27 Oeste 54 Oeste 0 999.8 -1.5 49
2020-03-04 14:00:00 17 28 Oeste 45 Oeste 0 1000.4 -1.3 67
2020-03-04 13:00:00 19.7 21 Oeste 42 Oeste 0 1001 -0.3 53
2020-03-04 12:00:00 18.6 24 Oeste 45 Oeste 0 1001.3 0.2 59
2020-03-04 11:00:00 18.8 21 Oeste 32 Sudoeste 0 1001.7 1.4 56
2020-03-04 10:00:00 17 21 Oeste 35 Sudoeste 0 1001.3 0.9 60
2020-03-04 09:00:00 16 15 Oeste 46 Oeste 0 1001.1 1.2 62
2020-03-04 08:00:00 16.1 29 Sudoeste 46 Sudoeste 0 1000.3 0.6 62
2020-03-04 07:00:00 16.4 26 Oeste 42 Oeste 0 1000.4 0.4 61
2020-03-04 06:00:00 15.8 18 Oeste 33 Oeste 0 999.9 -0.5 66
2020-03-04 05:00:00 14.4 14 Oeste 22 Oeste 0 999.7 -0.9 78
2020-03-04 04:00:00 13 5 Noroeste 13 Sudoeste 0 1000 -0.9 95
2020-03-04 03:00:00 12.2 8 Sudoeste 18 Oeste 0 1000.4 -1.3 99
2020-03-04 02:00:00 11.6 11 Sudoeste 18 Sudoeste 0 1000.6 -1.7 98
2020-03-04 01:00:00 11.4 10 Sudoeste 24 Sudoeste 0 1000.9 -1.7 97
2020-03-04 00:00:00 11.1 10 Sur 17 Sur 0.3 1001.7 -0.8 95
2020-03-03 23:00:00 11.5 8 Sudoeste 17 Sudoeste 0.1 1002.3 0.3 93
2020-03-03 22:00:00 11.6 6 Sur 8 Sur 0.5 1002.6 1.4 97
2020-03-03 21:00:00 12.1 4 Oeste 11 Noroeste 0 1002.5 1.4 90
2020-03-03 20:00:00 12.3 7 Noroeste 30 Oeste 0 1002 1.6 86
2020-03-03 19:00:00 12.5 22 Oeste 39 Oeste 0 1001.2 1.5 82
2020-03-03 18:00:00 12.7 28 Oeste 46 Oeste 0 1001.1 1.8 81
2020-03-03 17:00:00 12.8 31 Oeste 55 Oeste 0 1000.4 2.4 84
2020-03-03 16:00:00 13 36 Oeste 58 Oeste 0 999.7 3.1 83
2020-03-03 15:00:00 13.5 44 Oeste 63 Oeste 0 999.3 4.4 83
2020-03-03 14:00:00 14.4 49 Oeste 72 Oeste 0 998 5.5 78
2020-03-03 13:00:00 14.8 54 Oeste 80 Oeste 0 996.6 5.6 77
2020-03-03 12:00:00 15.3 54 Oeste 87 Oeste 0 994.9 4.9 73
2020-03-03 11:00:00 17.4 54 Oeste 80 Oeste 0 992.5 3.1 61
2020-03-03 10:00:00 17.7 48 Oeste 91 Oeste 0 991 1.1 59
2020-03-03 09:00:00 15.9 44 Oeste 82 Oeste 0 990 -1.8 61
2020-03-03 08:00:00 15 51 Oeste 85 Sudoeste 0.1 989.4 -4.5 62
2020-03-03 07:00:00 13 32 Oeste 52 Sudoeste 0.2 989.9 -5.3 68
2020-03-03 06:00:00 9.3 18 Sudoeste 30 Sudoeste 1.2 991.8 -4.8 87
2020-03-03 05:00:00 8.7 13 Sudoeste 24 Sudoeste 1.6 993.9 -3.8 88
2020-03-03 04:00:00 9.2 10 Oeste 18 Sudoeste 0.2 995.2 -3.4 74
2020-03-03 03:00:00 9.5 14 Sudoeste 42 Oeste 0 996.6 -2.7 69
2020-03-03 02:00:00 10.5 24 Sudoeste 59 Sudoeste 0 997.7 -2.1 59
2020-03-03 01:00:00 9.9 23 Sudoeste 39 Sudoeste 0 998.6 -1.3 61
2020-03-03 00:00:00 9.8 23 Sudoeste 45 Oeste 0 999.3 -0.7 62
2020-03-02 23:00:00 8.1 15 Sudoeste 28 Sudoeste 0 999.8 -0.4 71
2020-03-02 22:00:00 7.3 15 Sudoeste 24 Sudoeste 0 999.9 0 77
2020-03-02 21:00:00 7.1 14 Sudoeste 42 Oeste 0.1 1000 1.3 78
2020-03-02 20:00:00 6.6 12 Sudoeste 26 Oeste 0.1 1000.2 2.1 77
2020-03-02 19:00:00 7.4 22 Oeste 68 Oeste 0.6 999.9 2.7 73
2020-03-02 18:00:00 10.2 31 Oeste 65 Oeste 0 998.7 1.7 61
2020-03-02 17:00:00 10.1 41 Oeste 78 Oeste 1.5 998.1 1.6 68
2020-03-02 16:00:00 9.5 36 Oeste 65 Oeste 0.1 997.2 1.5 67
2020-03-02 15:00:00 10.1 44 Oeste 89 Oeste 0 997 2.1 61
2020-03-02 14:00:00 9.2 36 Oeste 80 Oeste 0 996.5 3 72
2020-03-02 13:00:00 9.7 53 Oeste 82 Oeste 0.4 995.7 3.9 65
2020-03-02 12:00:00 7.5 41 Oeste 76 Oeste 2.8 994.9 5.2 73
2020-03-02 11:00:00 5.5 38 Oeste 68 Oeste 4.3 993.5 5 85
2020-03-02 10:00:00 7.2 40 Oeste 93 Noroeste 0.8 991.8 4.6 80
2020-03-02 09:00:00 8 37 Oeste 71 Oeste 1.2 989.7 4 76
2020-03-02 08:00:00 7.8 33 Oeste 65 Oeste 5.1 988.5 4.8 81
2020-03-02 07:00:00 8 37 Oeste 72 Oeste 0.6 987.2 5.2 77
2020-03-02 06:00:00 7.5 33 Oeste 78 Noroeste 2.9 985.7 5.3 88
2020-03-02 05:00:00 8.6 58 Oeste 85 Oeste 2.6 983.7 6.3 90
2020-03-02 04:00:00 9.5 53 Oeste 96 Oeste 2.6 982 3.9 98
2020-03-02 03:00:00 9.7 39 Oeste 76 Noroeste 7 980.4 0.7 100
2020-03-02 02:00:00 9.7 13 Oeste 22 Oeste 6 977.4 -4 100
2020-03-02 01:00:00 9.7 10 Sudeste 15 Este 5.7 978.1 -5.1 100
2020-03-02 00:00:00 9.9 6 Nordeste 24 Sudeste 5.2 979.7 -5 100